sensor_id;sensor_type;location;lat;lon;timestamp;P1;durP1;ratioP1;P2;durP2;ratioP2
6358;SDS011;3212;51.460;11.868;2023-02-28T00:00:53;2.40;;;2.00;;
6358;SDS011;3212;51.460;11.868;2023-02-28T00:04:15;2.33;;;1.90;;
6358;SDS011;3212;51.460;11.868;2023-02-28T00:07:39;3.17;;;2.20;;
6358;SDS011;3212;51.460;11.868;2023-02-28T00:11:02;2.13;;;2.00;;
6358;SDS011;3212;51.460;11.868;2023-02-28T00:14:24;3.30;;;2.20;;
6358;SDS011;3212;51.460;11.868;2023-02-28T00:17:48;2.47;;;2.07;;
6358;SDS011;3212;51.460;11.868;2023-02-28T00:21:10;2.90;;;2.10;;
6358;SDS011;3212;51.460;11.868;2023-02-28T00:24:33;7.17;;;3.33;;
6358;SDS011;3212;51.460;11.868;2023-02-28T00:27:55;5.57;;;2.80;;
6358;SDS011;3212;51.460;11.868;2023-02-28T00:31:17;6.53;;;2.53;;
6358;SDS011;3212;51.460;11.868;2023-02-28T00:34:41;2.73;;;2.23;;
6358;SDS011;3212;51.460;11.868;2023-02-28T00:38:03;2.23;;;2.03;;
6358;SDS011;3212;51.460;11.868;2023-02-28T00:41:25;2.13;;;1.80;;
6358;SDS011;3212;51.460;11.868;2023-02-28T00:44:48;2.57;;;2.10;;
6358;SDS011;3212;51.460;11.868;2023-02-28T00:48:12;2.33;;;2.13;;
6358;SDS011;3212;51.460;11.868;2023-02-28T00:51:34;2.10;;;1.80;;
6358;SDS011;3212;51.460;11.868;2023-02-28T00:54:56;2.40;;;1.97;;
6358;SDS011;3212;51.460;11.868;2023-02-28T00:58:20;3.90;;;1.90;;
6358;SDS011;3212;51.460;11.868;2023-02-28T01:01:43;1.70;;;1.60;;
6358;SDS011;3212;51.460;11.868;2023-02-28T01:05:05;1.83;;;1.73;;
6358;SDS011;3212;51.460;11.868;2023-02-28T01:08:28;2.60;;;2.12;;
6358;SDS011;3212;51.460;11.868;2023-02-28T01:11:52;2.00;;;1.67;;
6358;SDS011;3212;51.460;11.868;2023-02-28T01:15:16;2.03;;;1.73;;
6358;SDS011;3212;51.460;11.868;2023-02-28T01:18:39;3.10;;;2.10;;
6358;SDS011;3212;51.460;11.868;2023-02-28T01:22:02;1.73;;;1.63;;
6358;SDS011;3212;51.460;11.868;2023-02-28T01:25:25;3.80;;;2.27;;
6358;SDS011;3212;51.460;11.868;2023-02-28T01:28:47;3.23;;;2.10;;
6358;SDS011;3212;51.460;11.868;2023-02-28T01:32:09;2.50;;;1.87;;
6358;SDS011;3212;51.460;11.868;2023-02-28T01:35:33;2.17;;;1.70;;
6358;SDS011;3212;51.460;11.868;2023-02-28T01:38:55;1.80;;;1.70;;
6358;SDS011;3212;51.460;11.868;2023-02-28T01:42:17;2.90;;;2.00;;
6358;SDS011;3212;51.460;11.868;2023-02-28T01:45:40;2.10;;;2.00;;
6358;SDS011;3212;51.460;11.868;2023-02-28T01:49:11;1.90;;;1.80;;
6358;SDS011;3212;51.460;11.868;2023-02-28T01:52:34;2.33;;;2.00;;
6358;SDS011;3212;51.460;11.868;2023-02-28T01:55:57;2.70;;;1.90;;
6358;SDS011;3212;51.460;11.868;2023-02-28T01:59:25;5.97;;;2.87;;
6358;SDS011;3212;51.460;11.868;2023-02-28T02:02:47;5.50;;;2.97;;
6358;SDS011;3212;51.460;11.868;2023-02-28T02:06:09;2.40;;;2.20;;
6358;SDS011;3212;51.460;11.868;2023-02-28T02:09:32;2.17;;;1.97;;
6358;SDS011;3212;51.460;11.868;2023-02-28T02:13:00;3.13;;;2.30;;
6358;SDS011;3212;51.460;11.868;2023-02-28T02:16:27;3.73;;;2.00;;
6358;SDS011;3212;51.460;11.868;2023-02-28T02:19:55;2.37;;;2.17;;
6358;SDS011;3212;51.460;11.868;2023-02-28T02:26:52;2.78;;;2.20;;
6358;SDS011;3212;51.460;11.868;2023-02-28T02:30:40;9.67;;;3.03;;
6358;SDS011;3212;51.460;11.868;2023-02-28T02:34:04;4.00;;;2.33;;
6358;SDS011;3212;51.460;11.868;2023-02-28T02:37:50;9.60;;;3.10;;
6358;SDS011;3212;51.460;11.868;2023-02-28T02:45:01;6.57;;;2.40;;
6358;SDS011;3212;51.460;11.868;2023-02-28T02:48:25;3.50;;;1.83;;
6358;SDS011;3212;51.460;11.868;2023-02-28T02:51:47;3.60;;;1.70;;
6358;SDS011;3212;51.460;11.868;2023-02-28T02:55:10;3.00;;;1.73;;
6358;SDS011;3212;51.460;11.868;2023-02-28T02:58:35;4.63;;;1.80;;
6358;SDS011;3212;51.460;11.868;2023-02-28T03:02:00;2.10;;;1.87;;
6358;SDS011;3212;51.460;11.868;2023-02-28T03:05:24;2.60;;;1.90;;
6358;SDS011;3212;51.460;11.868;2023-02-28T03:08:47;2.50;;;2.00;;
6358;SDS011;3212;51.460;11.868;2023-02-28T03:12:11;2.13;;;1.90;;
6358;SDS011;3212;51.460;11.868;2023-02-28T03:15:34;2.07;;;1.87;;
6358;SDS011;3212;51.460;11.868;2023-02-28T03:26:11;3.17;;;2.47;;
6358;SDS011;3212;51.460;11.868;2023-02-28T03:29:35;8.07;;;2.70;;
6358;SDS011;3212;51.460;11.868;2023-02-28T03:32:58;2.90;;;2.17;;
6358;SDS011;3212;51.460;11.868;2023-02-28T03:36:23;3.07;;;2.50;;
6358;SDS011;3212;51.460;11.868;2023-02-28T03:39:47;3.80;;;2.07;;
6358;SDS011;3212;51.460;11.868;2023-02-28T03:43:10;3.63;;;2.43;;
6358;SDS011;3212;51.460;11.868;2023-02-28T03:46:32;3.47;;;2.20;;
6358;SDS011;3212;51.460;11.868;2023-02-28T03:50:00;2.93;;;2.10;;
6358;SDS011;3212;51.460;11.868;2023-02-28T03:53:28;3.20;;;1.83;;
6358;SDS011;3212;51.460;11.868;2023-02-28T03:56:49;2.27;;;1.97;;
6358;SDS011;3212;51.460;11.868;2023-02-28T04:00:12;2.60;;;2.40;;
6358;SDS011;3212;51.460;11.868;2023-02-28T04:03:36;3.40;;;2.13;;
6358;SDS011;3212;51.460;11.868;2023-02-28T04:07:00;2.70;;;2.17;;
6358;SDS011;3212;51.460;11.868;2023-02-28T04:10:22;4.03;;;2.63;;
6358;SDS011;3212;51.460;11.868;2023-02-28T04:13:45;3.97;;;2.43;;
6358;SDS011;3212;51.460;11.868;2023-02-28T04:17:08;3.40;;;2.40;;
6358;SDS011;3212;51.460;11.868;2023-02-28T04:20:31;3.08;;;2.20;;
6358;SDS011;3212;51.460;11.868;2023-02-28T04:23:53;2.60;;;2.37;;
6358;SDS011;3212;51.460;11.868;2023-02-28T04:27:16;4.90;;;2.17;;
6358;SDS011;3212;51.460;11.868;2023-02-28T04:30:39;4.10;;;2.47;;
6358;SDS011;3212;51.460;11.868;2023-02-28T04:34:02;9.73;;;3.10;;
6358;SDS011;3212;51.460;11.868;2023-02-28T04:37:24;11.67;;;4.00;;
6358;SDS011;3212;51.460;11.868;2023-02-28T04:40:47;10.80;;;3.47;;
6358;SDS011;3212;51.460;11.868;2023-02-28T04:44:10;8.10;;;4.30;;
6358;SDS011;3212;51.460;11.868;2023-02-28T04:47:32;7.57;;;3.40;;
6358;SDS011;3212;51.460;11.868;2023-02-28T04:50:55;5.20;;;3.00;;
6358;SDS011;3212;51.460;11.868;2023-02-28T04:54:17;4.53;;;2.40;;
6358;SDS011;3212;51.460;11.868;2023-02-28T04:57:39;5.93;;;3.30;;
6358;SDS011;3212;51.460;11.868;2023-02-28T05:01:04;5.87;;;2.70;;
6358;SDS011;3212;51.460;11.868;2023-02-28T05:04:25;4.00;;;1.97;;
6358;SDS011;3212;51.460;11.868;2023-02-28T05:07:48;7.10;;;3.23;;
6358;SDS011;3212;51.460;11.868;2023-02-28T05:11:14;4.60;;;2.40;;
6358;SDS011;3212;51.460;11.868;2023-02-28T05:14:35;3.23;;;2.53;;
6358;SDS011;3212;51.460;11.868;2023-02-28T05:17:57;2.67;;;2.27;;
6358;SDS011;3212;51.460;11.868;2023-02-28T05:21:25;2.47;;;2.28;;
6358;SDS011;3212;51.460;11.868;2023-02-28T05:24:46;5.37;;;2.60;;
6358;SDS011;3212;51.460;11.868;2023-02-28T05:28:08;3.37;;;2.67;;
6358;SDS011;3212;51.460;11.868;2023-02-28T05:31:31;3.57;;;2.90;;
6358;SDS011;3212;51.460;11.868;2023-02-28T05:34:54;3.37;;;2.60;;
6358;SDS011;3212;51.460;11.868;2023-02-28T05:38:16;4.00;;;2.57;;
6358;SDS011;3212;51.460;11.868;2023-02-28T05:41:40;2.60;;;2.40;;
6358;SDS011;3212;51.460;11.868;2023-02-28T05:45:03;6.47;;;2.70;;
6358;SDS011;3212;51.460;11.868;2023-02-28T05:48:25;4.83;;;2.70;;
6358;SDS011;3212;51.460;11.868;2023-02-28T05:51:47;3.10;;;2.20;;
6358;SDS011;3212;51.460;11.868;2023-02-28T05:55:10;4.77;;;2.63;;
6358;SDS011;3212;51.460;11.868;2023-02-28T05:58:33;4.63;;;2.97;;
6358;SDS011;3212;51.460;11.868;2023-02-28T06:01:55;6.60;;;3.90;;
6358;SDS011;3212;51.460;11.868;2023-02-28T06:05:18;5.73;;;3.20;;
6358;SDS011;3212;51.460;11.868;2023-02-28T06:08:41;10.17;;;4.40;;
6358;SDS011;3212;51.460;11.868;2023-02-28T06:12:04;8.60;;;3.83;;
6358;SDS011;3212;51.460;11.868;2023-02-28T06:15:26;5.00;;;2.80;;
6358;SDS011;3212;51.460;11.868;2023-02-28T06:18:49;7.03;;;3.53;;
6358;SDS011;3212;51.460;11.868;2023-02-28T06:22:11;11.95;;;4.37;;
6358;SDS011;3212;51.460;11.868;2023-02-28T06:25:34;16.77;;;5.30;;
6358;SDS011;3212;51.460;11.868;2023-02-28T06:28:57;19.00;;;5.93;;
6358;SDS011;3212;51.460;11.868;2023-02-28T06:32:19;17.60;;;5.57;;
6358;SDS011;3212;51.460;11.868;2023-02-28T06:35:44;12.83;;;5.57;;
6358;SDS011;3212;51.460;11.868;2023-02-28T06:39:06;16.00;;;5.30;;
6358;SDS011;3212;51.460;11.868;2023-02-28T06:42:28;8.63;;;3.93;;
6358;SDS011;3212;51.460;11.868;2023-02-28T06:45:54;5.73;;;3.60;;
6358;SDS011;3212;51.460;11.868;2023-02-28T06:49:14;7.87;;;3.40;;
6358;SDS011;3212;51.460;11.868;2023-02-28T06:52:36;4.97;;;3.10;;
6358;SDS011;3212;51.460;11.868;2023-02-28T06:55:59;6.40;;;3.20;;
6358;SDS011;3212;51.460;11.868;2023-02-28T06:59:22;4.40;;;3.00;;
6358;SDS011;3212;51.460;11.868;2023-02-28T07:02:45;6.63;;;3.57;;
6358;SDS011;3212;51.460;11.868;2023-02-28T07:06:07;9.47;;;4.60;;
6358;SDS011;3212;51.460;11.868;2023-02-28T07:09:31;5.83;;;3.70;;
6358;SDS011;3212;51.460;11.868;2023-02-28T07:12:53;5.33;;;2.93;;
6358;SDS011;3212;51.460;11.868;2023-02-28T07:16:16;4.23;;;3.00;;
6358;SDS011;3212;51.460;11.868;2023-02-28T07:19:38;3.87;;;2.70;;
6358;SDS011;3212;51.460;11.868;2023-02-28T07:23:01;7.00;;;3.40;;
6358;SDS011;3212;51.460;11.868;2023-02-28T07:26:24;4.87;;;3.00;;
6358;SDS011;3212;51.460;11.868;2023-02-28T07:29:47;5.17;;;3.53;;
6358;SDS011;3212;51.460;11.868;2023-02-28T07:33:09;5.23;;;3.10;;
6358;SDS011;3212;51.460;11.868;2023-02-28T07:36:31;6.67;;;4.13;;
6358;SDS011;3212;51.460;11.868;2023-02-28T07:39:54;7.13;;;3.70;;
6358;SDS011;3212;51.460;11.868;2023-02-28T07:43:17;6.93;;;3.60;;
6358;SDS011;3212;51.460;11.868;2023-02-28T07:46:39;6.57;;;3.83;;
6358;SDS011;3212;51.460;11.868;2023-02-28T07:50:02;6.47;;;3.60;;
6358;SDS011;3212;51.460;11.868;2023-02-28T07:53:25;5.63;;;3.00;;
6358;SDS011;3212;51.460;11.868;2023-02-28T07:56:47;7.47;;;3.50;;
6358;SDS011;3212;51.460;11.868;2023-02-28T08:00:09;7.17;;;3.13;;
6358;SDS011;3212;51.460;11.868;2023-02-28T08:03:32;6.60;;;3.47;;
6358;SDS011;3212;51.460;11.868;2023-02-28T08:06:55;5.90;;;3.40;;
6358;SDS011;3212;51.460;11.868;2023-02-28T08:10:17;6.40;;;3.53;;
6358;SDS011;3212;51.460;11.868;2023-02-28T08:13:40;6.60;;;3.10;;
6358;SDS011;3212;51.460;11.868;2023-02-28T08:17:03;3.67;;;3.07;;
6358;SDS011;3212;51.460;11.868;2023-02-28T08:20:26;4.37;;;3.03;;
6358;SDS011;3212;51.460;11.868;2023-02-28T08:23:48;5.55;;;3.40;;
6358;SDS011;3212;51.460;11.868;2023-02-28T08:27:11;5.17;;;3.40;;
6358;SDS011;3212;51.460;11.868;2023-02-28T08:30:34;7.23;;;4.53;;
6358;SDS011;3212;51.460;11.868;2023-02-28T08:33:56;7.27;;;4.00;;
6358;SDS011;3212;51.460;11.868;2023-02-28T08:37:19;5.30;;;3.40;;
6358;SDS011;3212;51.460;11.868;2023-02-28T08:40:42;7.07;;;3.50;;
6358;SDS011;3212;51.460;11.868;2023-02-28T08:44:04;3.53;;;3.23;;
6358;SDS011;3212;51.460;11.868;2023-02-28T08:47:27;3.43;;;3.13;;
6358;SDS011;3212;51.460;11.868;2023-02-28T08:50:56;6.17;;;3.70;;
6358;SDS011;3212;51.460;11.868;2023-02-28T08:54:21;5.30;;;2.80;;
6358;SDS011;3212;51.460;11.868;2023-02-28T08:57:43;5.10;;;3.20;;
6358;SDS011;3212;51.460;11.868;2023-02-28T09:01:09;4.22;;;3.28;;
6358;SDS011;3212;51.460;11.868;2023-02-28T09:04:33;5.37;;;2.90;;
6358;SDS011;3212;51.460;11.868;2023-02-28T09:07:55;5.90;;;3.30;;
6358;SDS011;3212;51.460;11.868;2023-02-28T09:11:18;3.83;;;2.90;;
6358;SDS011;3212;51.460;11.868;2023-02-28T09:14:41;4.27;;;3.03;;
6358;SDS011;3212;51.460;11.868;2023-02-28T09:18:04;3.97;;;2.83;;
6358;SDS011;3212;51.460;11.868;2023-02-28T09:21:27;4.23;;;2.50;;
6358;SDS011;3212;51.460;11.868;2023-02-28T09:24:49;3.67;;;3.10;;
6358;SDS011;3212;51.460;11.868;2023-02-28T09:28:11;4.37;;;3.07;;
6358;SDS011;3212;51.460;11.868;2023-02-28T09:31:34;4.43;;;3.20;;
6358;SDS011;3212;51.460;11.868;2023-02-28T09:34:57;3.93;;;2.90;;
6358;SDS011;3212;51.460;11.868;2023-02-28T09:38:19;4.03;;;3.33;;
6358;SDS011;3212;51.460;11.868;2023-02-28T09:41:43;6.37;;;3.70;;
6358;SDS011;3212;51.460;11.868;2023-02-28T09:45:15;8.53;;;4.97;;
6358;SDS011;3212;51.460;11.868;2023-02-28T09:48:35;7.70;;;4.90;;
6358;SDS011;3212;51.460;11.868;2023-02-28T09:52:01;4.57;;;3.33;;
6358;SDS011;3212;51.460;11.868;2023-02-28T09:55:26;6.37;;;3.90;;
6358;SDS011;3212;51.460;11.868;2023-02-28T10:02:24;3.20;;;2.90;;
6358;SDS011;3212;51.460;11.868;2023-02-28T10:06:04;4.73;;;3.03;;
6358;SDS011;3212;51.460;11.868;2023-02-28T10:09:42;2.90;;;2.60;;
6358;SDS011;3212;51.460;11.868;2023-02-28T10:13:06;4.50;;;2.70;;
6358;SDS011;3212;51.460;11.868;2023-02-28T10:16:29;4.90;;;2.50;;
6358;SDS011;3212;51.460;11.868;2023-02-28T10:20:00;3.87;;;2.80;;
6358;SDS011;3212;51.460;11.868;2023-02-28T10:23:28;3.50;;;2.77;;
6358;SDS011;3212;51.460;11.868;2023-02-28T10:26:50;4.12;;;2.80;;
6358;SDS011;3212;51.460;11.868;2023-02-28T10:30:13;6.30;;;2.80;;
6358;SDS011;3212;51.460;11.868;2023-02-28T10:33:35;5.93;;;3.50;;
6358;SDS011;3212;51.460;11.868;2023-02-28T10:36:58;4.70;;;3.30;;
6358;SDS011;3212;51.460;11.868;2023-02-28T10:40:29;6.70;;;3.63;;
6358;SDS011;3212;51.460;11.868;2023-02-28T10:43:52;3.50;;;3.13;;
6358;SDS011;3212;51.460;11.868;2023-02-28T10:47:15;6.73;;;3.60;;
6358;SDS011;3212;51.460;11.868;2023-02-28T10:54:17;5.97;;;3.77;;
6358;SDS011;3212;51.460;11.868;2023-02-28T10:57:38;5.37;;;3.67;;
6358;SDS011;3212;51.460;11.868;2023-02-28T11:01:01;5.87;;;3.40;;
6358;SDS011;3212;51.460;11.868;2023-02-28T11:04:34;5.37;;;3.63;;
6358;SDS011;3212;51.460;11.868;2023-02-28T11:11:42;5.47;;;3.50;;
6358;SDS011;3212;51.460;11.868;2023-02-28T11:15:06;6.20;;;3.63;;
6358;SDS011;3212;51.460;11.868;2023-02-28T11:18:29;5.00;;;3.90;;
6358;SDS011;3212;51.460;11.868;2023-02-28T11:22:01;5.33;;;3.60;;
6358;SDS011;3212;51.460;11.868;2023-02-28T11:25:26;6.43;;;4.05;;
6358;SDS011;3212;51.460;11.868;2023-02-28T11:28:48;5.55;;;4.35;;
6358;SDS011;3212;51.460;11.868;2023-02-28T11:32:18;6.10;;;3.77;;
6358;SDS011;3212;51.460;11.868;2023-02-28T11:35:46;4.95;;;4.12;;
6358;SDS011;3212;51.460;11.868;2023-02-28T11:39:10;6.33;;;3.97;;
6358;SDS011;3212;51.460;11.868;2023-02-28T11:42:38;6.70;;;4.13;;
6358;SDS011;3212;51.460;11.868;2023-02-28T11:46:12;4.60;;;4.10;;
6358;SDS011;3212;51.460;11.868;2023-02-28T11:53:22;5.43;;;4.20;;
6358;SDS011;3212;51.460;11.868;2023-02-28T12:00:29;6.20;;;4.13;;
6358;SDS011;3212;51.460;11.868;2023-02-28T12:04:11;4.80;;;4.20;;
6358;SDS011;3212;51.460;11.868;2023-02-28T12:07:39;5.83;;;3.87;;
6358;SDS011;3212;51.460;11.868;2023-02-28T12:11:11;6.70;;;4.27;;
6358;SDS011;3212;51.460;11.868;2023-02-28T12:18:11;7.27;;;4.70;;
6358;SDS011;3212;51.460;11.868;2023-02-28T12:21:34;5.57;;;4.60;;
6358;SDS011;3212;51.460;11.868;2023-02-28T12:25:01;7.10;;;4.80;;
6358;SDS011;3212;51.460;11.868;2023-02-28T12:28:26;5.97;;;4.55;;
6358;SDS011;3212;51.460;11.868;2023-02-28T12:31:52;7.50;;;4.53;;
6358;SDS011;3212;51.460;11.868;2023-02-28T12:35:22;6.90;;;5.00;;
6358;SDS011;3212;51.460;11.868;2023-02-28T12:38:48;5.62;;;4.30;;
6358;SDS011;3212;51.460;11.868;2023-02-28T12:42:12;5.60;;;4.70;;
6358;SDS011;3212;51.460;11.868;2023-02-28T12:45:40;5.27;;;4.50;;
6358;SDS011;3212;51.460;11.868;2023-02-28T12:49:06;8.57;;;4.53;;
6358;SDS011;3212;51.460;11.868;2023-02-28T12:52:30;8.87;;;5.00;;
6358;SDS011;3212;51.460;11.868;2023-02-28T12:56:13;7.50;;;4.37;;
6358;SDS011;3212;51.460;11.868;2023-02-28T12:59:41;7.37;;;4.70;;
6358;SDS011;3212;51.460;11.868;2023-02-28T13:17:50;7.97;;;4.70;;
6358;SDS011;3212;51.460;11.868;2023-02-28T13:24:45;5.93;;;4.30;;
6358;SDS011;3212;51.460;11.868;2023-02-28T13:28:09;5.50;;;4.40;;
6358;SDS011;3212;51.460;11.868;2023-02-28T13:31:31;5.87;;;4.53;;
6358;SDS011;3212;51.460;11.868;2023-02-28T13:38:35;6.37;;;5.03;;
6358;SDS011;3212;51.460;11.868;2023-02-28T13:41:57;7.73;;;5.40;;
6358;SDS011;3212;51.460;11.868;2023-02-28T13:45:21;5.33;;;4.23;;
6358;SDS011;3212;51.460;11.868;2023-02-28T13:48:42;7.70;;;4.97;;
6358;SDS011;3212;51.460;11.868;2023-02-28T13:52:15;7.03;;;4.80;;
6358;SDS011;3212;51.460;11.868;2023-02-28T13:59:32;8.10;;;5.30;;
6358;SDS011;3212;51.460;11.868;2023-02-28T14:02:59;7.13;;;4.97;;
6358;SDS011;3212;51.460;11.868;2023-02-28T14:06:30;8.20;;;5.77;;
6358;SDS011;3212;51.460;11.868;2023-02-28T14:09:57;6.43;;;4.67;;
6358;SDS011;3212;51.460;11.868;2023-02-28T14:17:02;7.60;;;5.33;;
6358;SDS011;3212;51.460;11.868;2023-02-28T14:20:25;7.30;;;4.63;;
6358;SDS011;3212;51.460;11.868;2023-02-28T14:23:50;8.73;;;5.37;;
6358;SDS011;3212;51.460;11.868;2023-02-28T14:27:16;7.60;;;5.60;;
6358;SDS011;3212;51.460;11.868;2023-02-28T14:30:52;9.60;;;5.07;;
6358;SDS011;3212;51.460;11.868;2023-02-28T14:34:21;8.80;;;5.67;;
6358;SDS011;3212;51.460;11.868;2023-02-28T14:37:41;9.20;;;4.60;;
6358;SDS011;3212;51.460;11.868;2023-02-28T14:41:04;6.57;;;4.70;;
6358;SDS011;3212;51.460;11.868;2023-02-28T14:44:27;6.30;;;4.70;;
6358;SDS011;3212;51.460;11.868;2023-02-28T14:47:50;6.23;;;4.40;;
6358;SDS011;3212;51.460;11.868;2023-02-28T14:51:12;6.93;;;4.33;;
6358;SDS011;3212;51.460;11.868;2023-02-28T14:54:36;7.47;;;4.20;;
6358;SDS011;3212;51.460;11.868;2023-02-28T14:57:58;5.93;;;4.37;;
6358;SDS011;3212;51.460;11.868;2023-02-28T15:01:22;6.55;;;4.55;;
6358;SDS011;3212;51.460;11.868;2023-02-28T15:04:51;5.60;;;4.57;;
6358;SDS011;3212;51.460;11.868;2023-02-28T15:08:11;8.17;;;4.77;;
6358;SDS011;3212;51.460;11.868;2023-02-28T15:11:33;7.93;;;5.10;;
6358;SDS011;3212;51.460;11.868;2023-02-28T15:14:55;6.50;;;4.37;;
6358;SDS011;3212;51.460;11.868;2023-02-28T15:18:29;8.80;;;4.53;;
6358;SDS011;3212;51.460;11.868;2023-02-28T15:21:53;6.80;;;4.53;;
6358;SDS011;3212;51.460;11.868;2023-02-28T15:25:15;6.00;;;4.30;;
6358;SDS011;3212;51.460;11.868;2023-02-28T15:28:37;6.33;;;4.17;;
6358;SDS011;3212;51.460;11.868;2023-02-28T15:32:01;6.10;;;4.20;;
6358;SDS011;3212;51.460;11.868;2023-02-28T15:35:27;17.37;;;6.83;;
6358;SDS011;3212;51.460;11.868;2023-02-28T15:38:51;8.80;;;6.77;;
6358;SDS011;3212;51.460;11.868;2023-02-28T15:42:18;7.87;;;4.70;;
6358;SDS011;3212;51.460;11.868;2023-02-28T15:45:41;7.90;;;4.77;;
6358;SDS011;3212;51.460;11.868;2023-02-28T15:49:03;9.00;;;4.60;;
6358;SDS011;3212;51.460;11.868;2023-02-28T15:52:37;6.70;;;4.37;;
6358;SDS011;3212;51.460;11.868;2023-02-28T15:56:02;8.43;;;4.60;;
6358;SDS011;3212;51.460;11.868;2023-02-28T15:59:25;7.00;;;4.40;;
6358;SDS011;3212;51.460;11.868;2023-02-28T16:02:47;5.67;;;3.73;;
6358;SDS011;3212;51.460;11.868;2023-02-28T16:09:53;7.47;;;4.93;;
6358;SDS011;3212;51.460;11.868;2023-02-28T16:13:16;8.43;;;5.40;;
6358;SDS011;3212;51.460;11.868;2023-02-28T16:16:41;6.90;;;5.07;;
6358;SDS011;3212;51.460;11.868;2023-02-28T16:20:01;8.90;;;5.70;;
6358;SDS011;3212;51.460;11.868;2023-02-28T16:23:23;8.80;;;5.70;;
6358;SDS011;3212;51.460;11.868;2023-02-28T16:26:47;9.38;;;5.97;;
6358;SDS011;3212;51.460;11.868;2023-02-28T16:30:15;7.40;;;5.30;;
6358;SDS011;3212;51.460;11.868;2023-02-28T16:33:32;7.50;;;5.00;;
6358;SDS011;3212;51.460;11.868;2023-02-28T16:36:55;7.20;;;5.10;;
6358;SDS011;3212;51.460;11.868;2023-02-28T16:40:18;6.87;;;5.40;;
6358;SDS011;3212;51.460;11.868;2023-02-28T16:43:40;6.97;;;4.60;;
6358;SDS011;3212;51.460;11.868;2023-02-28T16:47:04;9.00;;;4.87;;
6358;SDS011;3212;51.460;11.868;2023-02-28T16:50:28;8.07;;;4.90;;
6358;SDS011;3212;51.460;11.868;2023-02-28T16:53:49;12.30;;;6.43;;
6358;SDS011;3212;51.460;11.868;2023-02-28T16:57:20;11.67;;;5.60;;
6358;SDS011;3212;51.460;11.868;2023-02-28T17:00:43;10.33;;;5.60;;
6358;SDS011;3212;51.460;11.868;2023-02-28T17:04:08;10.27;;;5.10;;
6358;SDS011;3212;51.460;11.868;2023-02-28T17:07:29;10.60;;;5.70;;
6358;SDS011;3212;51.460;11.868;2023-02-28T17:10:52;9.00;;;5.23;;
6358;SDS011;3212;51.460;11.868;2023-02-28T17:14:15;8.43;;;5.50;;
6358;SDS011;3212;51.460;11.868;2023-02-28T17:17:38;9.70;;;6.07;;
6358;SDS011;3212;51.460;11.868;2023-02-28T17:21:00;9.83;;;6.00;;
6358;SDS011;3212;51.460;11.868;2023-02-28T17:24:23;11.37;;;6.47;;
6358;SDS011;3212;51.460;11.868;2023-02-28T17:27:45;9.77;;;6.10;;
6358;SDS011;3212;51.460;11.868;2023-02-28T17:31:08;13.20;;;6.73;;
6358;SDS011;3212;51.460;11.868;2023-02-28T17:34:31;14.33;;;7.90;;
6358;SDS011;3212;51.460;11.868;2023-02-28T17:37:55;13.43;;;7.10;;
6358;SDS011;3212;51.460;11.868;2023-02-28T17:41:18;14.67;;;7.60;;
6358;SDS011;3212;51.460;11.868;2023-02-28T17:44:40;13.00;;;7.60;;
6358;SDS011;3212;51.460;11.868;2023-02-28T17:48:03;15.63;;;9.30;;
6358;SDS011;3212;51.460;11.868;2023-02-28T17:51:26;20.87;;;10.87;;
6358;SDS011;3212;51.460;11.868;2023-02-28T17:54:49;15.37;;;8.73;;
6358;SDS011;3212;51.460;11.868;2023-02-28T17:58:13;15.83;;;7.50;;
6358;SDS011;3212;51.460;11.868;2023-02-28T18:01:35;12.75;;;8.30;;
6358;SDS011;3212;51.460;11.868;2023-02-28T18:04:58;17.70;;;8.67;;
6358;SDS011;3212;51.460;11.868;2023-02-28T18:08:21;29.63;;;12.53;;
6358;SDS011;3212;51.460;11.868;2023-02-28T18:11:43;28.33;;;12.87;;
6358;SDS011;3212;51.460;11.868;2023-02-28T18:15:07;18.60;;;9.93;;
6358;SDS011;3212;51.460;11.868;2023-02-28T18:18:29;15.83;;;8.37;;
6358;SDS011;3212;51.460;11.868;2023-02-28T18:21:52;13.57;;;8.57;;
6358;SDS011;3212;51.460;11.868;2023-02-28T18:25:15;10.33;;;6.70;;
6358;SDS011;3212;51.460;11.868;2023-02-28T18:28:37;13.67;;;6.77;;
6358;SDS011;3212;51.460;11.868;2023-02-28T18:32:00;12.67;;;6.27;;
6358;SDS011;3212;51.460;11.868;2023-02-28T18:35:23;11.80;;;7.53;;
6358;SDS011;3212;51.460;11.868;2023-02-28T18:38:52;18.37;;;8.17;;
6358;SDS011;3212;51.460;11.868;2023-02-28T18:42:14;16.90;;;7.20;;
6358;SDS011;3212;51.460;11.868;2023-02-28T18:45:37;14.93;;;7.23;;
6358;SDS011;3212;51.460;11.868;2023-02-28T18:48:59;14.07;;;6.90;;
6358;SDS011;3212;51.460;11.868;2023-02-28T18:52:22;9.67;;;6.67;;
6358;SDS011;3212;51.460;11.868;2023-02-28T18:55:45;14.00;;;7.47;;
6358;SDS011;3212;51.460;11.868;2023-02-28T18:59:08;9.90;;;5.80;;
6358;SDS011;3212;51.460;11.868;2023-02-28T19:02:31;9.30;;;6.00;;
6358;SDS011;3212;51.460;11.868;2023-02-28T19:05:55;12.23;;;6.30;;
6358;SDS011;3212;51.460;11.868;2023-02-28T19:09:17;13.85;;;7.15;;
6358;SDS011;3212;51.460;11.868;2023-02-28T19:12:40;12.53;;;7.00;;
6358;SDS011;3212;51.460;11.868;2023-02-28T19:16:03;16.70;;;7.00;;
6358;SDS011;3212;51.460;11.868;2023-02-28T19:19:25;13.83;;;7.50;;
6358;SDS011;3212;51.460;11.868;2023-02-28T19:22:48;19.83;;;9.27;;
6358;SDS011;3212;51.460;11.868;2023-02-28T19:26:12;19.10;;;9.40;;
6358;SDS011;3212;51.460;11.868;2023-02-28T19:29:33;17.60;;;8.60;;
6358;SDS011;3212;51.460;11.868;2023-02-28T19:32:55;13.93;;;7.30;;
6358;SDS011;3212;51.460;11.868;2023-02-28T19:36:19;11.47;;;6.70;;
6358;SDS011;3212;51.460;11.868;2023-02-28T19:39:43;15.63;;;7.17;;
6358;SDS011;3212;51.460;11.868;2023-02-28T19:43:04;16.33;;;7.40;;
6358;SDS011;3212;51.460;11.868;2023-02-28T19:46:27;20.77;;;11.10;;
6358;SDS011;3212;51.460;11.868;2023-02-28T19:49:49;18.10;;;9.10;;
6358;SDS011;3212;51.460;11.868;2023-02-28T19:53:14;21.53;;;9.70;;
6358;SDS011;3212;51.460;11.868;2023-02-28T19:56:36;16.60;;;8.93;;
6358;SDS011;3212;51.460;11.868;2023-02-28T19:59:59;15.97;;;8.97;;
6358;SDS011;3212;51.460;11.868;2023-02-28T20:03:22;13.93;;;7.83;;
6358;SDS011;3212;51.460;11.868;2023-02-28T20:06:44;17.53;;;7.40;;
6358;SDS011;3212;51.460;11.868;2023-02-28T20:10:07;13.00;;;7.70;;
6358;SDS011;3212;51.460;11.868;2023-02-28T20:13:30;16.00;;;7.80;;
6358;SDS011;3212;51.460;11.868;2023-02-28T20:16:52;15.43;;;7.13;;
6358;SDS011;3212;51.460;11.868;2023-02-28T20:20:15;14.83;;;7.87;;
6358;SDS011;3212;51.460;11.868;2023-02-28T20:23:39;17.40;;;7.40;;
6358;SDS011;3212;51.460;11.868;2023-02-28T20:27:01;12.57;;;7.53;;
6358;SDS011;3212;51.460;11.868;2023-02-28T20:30:23;19.53;;;8.73;;
6358;SDS011;3212;51.460;11.868;2023-02-28T20:33:47;13.27;;;7.77;;
6358;SDS011;3212;51.460;11.868;2023-02-28T20:37:09;12.90;;;7.83;;
6358;SDS011;3212;51.460;11.868;2023-02-28T20:40:31;13.43;;;7.67;;
6358;SDS011;3212;51.460;11.868;2023-02-28T20:43:55;15.23;;;7.70;;
6358;SDS011;3212;51.460;11.868;2023-02-28T20:47:17;14.23;;;7.33;;
6358;SDS011;3212;51.460;11.868;2023-02-28T20:50:39;11.90;;;6.87;;
6358;SDS011;3212;51.460;11.868;2023-02-28T20:54:02;23.27;;;11.37;;
6358;SDS011;3212;51.460;11.868;2023-02-28T20:57:27;21.37;;;10.10;;
6358;SDS011;3212;51.460;11.868;2023-02-28T21:00:48;14.43;;;7.73;;
6358;SDS011;3212;51.460;11.868;2023-02-28T21:04:10;13.67;;;7.47;;
6358;SDS011;3212;51.460;11.868;2023-02-28T21:07:33;15.47;;;7.77;;
6358;SDS011;3212;51.460;11.868;2023-02-28T21:10:57;15.93;;;7.70;;
6358;SDS011;3212;51.460;11.868;2023-02-28T21:14:19;15.27;;;7.77;;
6358;SDS011;3212;51.460;11.868;2023-02-28T21:17:42;17.23;;;7.73;;
6358;SDS011;3212;51.460;11.868;2023-02-28T21:21:06;18.77;;;7.00;;
6358;SDS011;3212;51.460;11.868;2023-02-28T21:24:27;12.17;;;7.33;;
6358;SDS011;3212;51.460;11.868;2023-02-28T21:27:50;13.83;;;6.90;;
6358;SDS011;3212;51.460;11.868;2023-02-28T21:31:14;16.57;;;8.10;;
6358;SDS011;3212;51.460;11.868;2023-02-28T21:34:35;16.57;;;8.50;;
6358;SDS011;3212;51.460;11.868;2023-02-28T21:37:58;15.60;;;8.80;;
6358;SDS011;3212;51.460;11.868;2023-02-28T21:41:21;21.20;;;9.97;;
6358;SDS011;3212;51.460;11.868;2023-02-28T21:44:44;19.77;;;9.50;;
6358;SDS011;3212;51.460;11.868;2023-02-28T21:48:07;18.70;;;9.40;;
6358;SDS011;3212;51.460;11.868;2023-02-28T21:51:30;15.20;;;8.47;;